sensor_id;sensor_type;location;lat;lon;timestamp;temperature;humidity
66328;DHT22;53133;52.862;6.602;2022-10-16T00:01:21;13.30;99.90
66328;DHT22;53133;52.862;6.602;2022-10-16T00:03:48;13.20;99.90
66328;DHT22;53133;52.862;6.602;2022-10-16T00:06:15;13.20;99.90
66328;DHT22;53133;52.862;6.602;2022-10-16T00:08:41;13.20;99.90
66328;DHT22;53133;52.862;6.602;2022-10-16T00:13:44;13.30;99.90
66328;DHT22;53133;52.862;6.602;2022-10-16T00:16:12;13.20;99.90
66328;DHT22;53133;52.862;6.602;2022-10-16T00:18:37;13.30;99.90
66328;DHT22;53133;52.862;6.602;2022-10-16T00:21:09;13.30;99.90
66328;DHT22;53133;52.862;6.602;2022-10-16T00:23:35;13.20;99.90
66328;DHT22;53133;52.862;6.602;2022-10-16T00:26:06;13.20;99.90
66328;DHT22;53133;52.862;6.602;2022-10-16T00:28:33;13.20;99.90
66328;DHT22;53133;52.862;6.602;2022-10-16T00:30:58;13.20;99.90
66328;DHT22;53133;52.862;6.602;2022-10-16T00:33:24;13.30;99.90
66328;DHT22;53133;52.862;6.602;2022-10-16T00:35:50;13.30;99.90
66328;DHT22;53133;52.862;6.602;2022-10-16T00:38:16;13.20;99.90
66328;DHT22;53133;52.862;6.602;2022-10-16T00:40:41;13.20;99.90
66328;DHT22;53133;52.862;6.602;2022-10-16T00:44:00;13.20;99.90
66328;DHT22;53133;52.862;6.602;2022-10-16T00:46:02;13.20;99.90
66328;DHT22;53133;52.862;6.602;2022-10-16T00:48:28;13.20;99.90
66328;DHT22;53133;52.862;6.602;2022-10-16T00:50:56;13.20;99.90
66328;DHT22;53133;52.862;6.602;2022-10-16T00:53:23;13.20;99.90
66328;DHT22;53133;52.862;6.602;2022-10-16T00:55:50;13.20;99.90
66328;DHT22;53133;52.862;6.602;2022-10-16T00:58:16;13.20;99.90
66328;DHT22;53133;52.862;6.602;2022-10-16T01:00:42;13.20;99.90
66328;DHT22;53133;52.862;6.602;2022-10-16T01:03:26;13.20;99.90
66328;DHT22;53133;52.862;6.602;2022-10-16T01:08:37;13.20;99.90
66328;DHT22;53133;52.862;6.602;2022-10-16T01:11:15;13.20;99.90
66328;DHT22;53133;52.862;6.602;2022-10-16T01:13:46;13.20;99.90
66328;DHT22;53133;52.862;6.602;2022-10-16T01:16:20;13.20;99.90
66328;DHT22;53133;52.862;6.602;2022-10-16T01:18:54;13.20;99.90
66328;DHT22;53133;52.862;6.602;2022-10-16T01:21:26;13.20;99.90
66328;DHT22;53133;52.862;6.602;2022-10-16T01:27:07;13.20;99.90
66328;DHT22;53133;52.862;6.602;2022-10-16T01:33:24;13.20;99.90
66328;DHT22;53133;52.862;6.602;2022-10-16T01:35:54;13.20;99.90
66328;DHT22;53133;52.862;6.602;2022-10-16T01:38:29;13.20;99.90
66328;DHT22;53133;52.862;6.602;2022-10-16T01:41:03;13.20;99.90
66328;DHT22;53133;52.862;6.602;2022-10-16T01:43:43;13.20;99.90
66328;DHT22;53133;52.862;6.602;2022-10-16T01:46:09;13.30;99.90
66328;DHT22;53133;52.862;6.602;2022-10-16T01:48:36;13.20;99.90
66328;DHT22;53133;52.862;6.602;2022-10-16T01:51:08;13.20;99.90
66328;DHT22;53133;52.862;6.602;2022-10-16T01:53:36;13.20;99.90
66328;DHT22;53133;52.862;6.602;2022-10-16T01:56:04;13.20;99.90
66328;DHT22;53133;52.862;6.602;2022-10-16T01:58:34;13.20;99.90
66328;DHT22;53133;52.862;6.602;2022-10-16T02:01:02;13.30;99.90
66328;DHT22;53133;52.862;6.602;2022-10-16T02:03:30;13.30;99.90
66328;DHT22;53133;52.862;6.602;2022-10-16T02:05:58;13.30;99.90
66328;DHT22;53133;52.862;6.602;2022-10-16T02:08:27;13.30;99.90
66328;DHT22;53133;52.862;6.602;2022-10-16T02:10:55;13.30;99.90
66328;DHT22;53133;52.862;6.602;2022-10-16T02:13:48;13.20;99.90
66328;DHT22;53133;52.862;6.602;2022-10-16T02:16:15;13.20;99.90
66328;DHT22;53133;52.862;6.602;2022-10-16T02:18:42;13.20;99.90
66328;DHT22;53133;52.862;6.602;2022-10-16T02:23:41;13.30;99.90
66328;DHT22;53133;52.862;6.602;2022-10-16T02:26:15;13.20;99.90
66328;DHT22;53133;52.862;6.602;2022-10-16T02:28:47;13.30;99.90
66328;DHT22;53133;52.862;6.602;2022-10-16T02:31:18;13.30;99.90
66328;DHT22;53133;52.862;6.602;2022-10-16T02:33:47;13.30;99.90
66328;DHT22;53133;52.862;6.602;2022-10-16T02:36:12;13.30;99.90
66328;DHT22;53133;52.862;6.602;2022-10-16T02:38:40;13.30;99.90
66328;DHT22;53133;52.862;6.602;2022-10-16T02:41:05;13.30;99.90
66328;DHT22;53133;52.862;6.602;2022-10-16T02:43:31;13.30;99.90
66328;DHT22;53133;52.862;6.602;2022-10-16T02:45:59;13.30;99.90
66328;DHT22;53133;52.862;6.602;2022-10-16T02:48:24;13.40;99.90
66328;DHT22;53133;52.862;6.602;2022-10-16T02:50:50;13.30;99.90
66328;DHT22;53133;52.862;6.602;2022-10-16T02:53:16;13.30;99.90
66328;DHT22;53133;52.862;6.602;2022-10-16T02:55:42;13.30;99.90
66328;DHT22;53133;52.862;6.602;2022-10-16T02:58:07;13.30;99.90
66328;DHT22;53133;52.862;6.602;2022-10-16T03:00:33;13.40;99.90
66328;DHT22;53133;52.862;6.602;2022-10-16T03:02:58;13.30;99.90
66328;DHT22;53133;52.862;6.602;2022-10-16T03:05:24;13.40;99.90
66328;DHT22;53133;52.862;6.602;2022-10-16T03:07:49;13.40;99.90
66328;DHT22;53133;52.862;6.602;2022-10-16T03:10:15;13.40;99.90
66328;DHT22;53133;52.862;6.602;2022-10-16T03:12:41;13.40;99.90
66328;DHT22;53133;52.862;6.602;2022-10-16T03:15:07;13.40;99.90
66328;DHT22;53133;52.862;6.602;2022-10-16T03:17:32;13.40;99.90
66328;DHT22;53133;52.862;6.602;2022-10-16T03:19:58;13.40;99.90
66328;DHT22;53133;52.862;6.602;2022-10-16T03:22:24;13.40;99.90
66328;DHT22;53133;52.862;6.602;2022-10-16T03:24:49;13.40;99.90
66328;DHT22;53133;52.862;6.602;2022-10-16T03:27:15;13.40;99.90
66328;DHT22;53133;52.862;6.602;2022-10-16T03:29:40;13.40;99.90
66328;DHT22;53133;52.862;6.602;2022-10-16T03:32:06;13.40;99.90
66328;DHT22;53133;52.862;6.602;2022-10-16T03:34:31;13.40;99.90
66328;DHT22;53133;52.862;6.602;2022-10-16T03:36:57;13.40;99.90
66328;DHT22;53133;52.862;6.602;2022-10-16T03:39:23;13.40;99.90
66328;DHT22;53133;52.862;6.602;2022-10-16T03:41:48;13.40;99.90
66328;DHT22;53133;52.862;6.602;2022-10-16T03:44:14;13.40;99.90
66328;DHT22;53133;52.862;6.602;2022-10-16T03:46:39;13.40;99.90
66328;DHT22;53133;52.862;6.602;2022-10-16T03:49:05;13.40;99.90
66328;DHT22;53133;52.862;6.602;2022-10-16T03:51:31;13.40;99.90
66328;DHT22;53133;52.862;6.602;2022-10-16T03:53:56;13.40;99.90
66328;DHT22;53133;52.862;6.602;2022-10-16T03:56:22;13.40;99.90
66328;DHT22;53133;52.862;6.602;2022-10-16T03:58:48;13.40;99.90
66328;DHT22;53133;52.862;6.602;2022-10-16T04:01:13;13.40;99.90
66328;DHT22;53133;52.862;6.602;2022-10-16T04:03:39;13.40;99.90
66328;DHT22;53133;52.862;6.602;2022-10-16T04:06:05;13.30;99.90
66328;DHT22;53133;52.862;6.602;2022-10-16T04:08:30;13.30;99.90
66328;DHT22;53133;52.862;6.602;2022-10-16T04:10:56;13.30;99.90
66328;DHT22;53133;52.862;6.602;2022-10-16T04:13:21;13.30;99.90
66328;DHT22;53133;52.862;6.602;2022-10-16T04:15:47;13.30;99.90
66328;DHT22;53133;52.862;6.602;2022-10-16T04:18:13;13.30;99.90
66328;DHT22;53133;52.862;6.602;2022-10-16T04:20:38;13.20;99.90
66328;DHT22;53133;52.862;6.602;2022-10-16T04:23:04;13.30;99.90
66328;DHT22;53133;52.862;6.602;2022-10-16T04:25:30;13.30;99.90
66328;DHT22;53133;52.862;6.602;2022-10-16T04:27:55;13.20;99.90
66328;DHT22;53133;52.862;6.602;2022-10-16T04:30:22;13.20;99.90
66328;DHT22;53133;52.862;6.602;2022-10-16T04:32:49;13.20;99.90
66328;DHT22;53133;52.862;6.602;2022-10-16T04:35:15;13.20;99.90
66328;DHT22;53133;52.862;6.602;2022-10-16T04:37:41;13.20;99.90
66328;DHT22;53133;52.862;6.602;2022-10-16T04:40:07;13.20;99.90
66328;DHT22;53133;52.862;6.602;2022-10-16T04:42:32;13.10;99.90
66328;DHT22;53133;52.862;6.602;2022-10-16T04:44:58;13.10;99.90
66328;DHT22;53133;52.862;6.602;2022-10-16T04:47:23;13.10;99.90
66328;DHT22;53133;52.862;6.602;2022-10-16T04:49:49;13.10;99.90
66328;DHT22;53133;52.862;6.602;2022-10-16T04:52:17;13.10;99.90
66328;DHT22;53133;52.862;6.602;2022-10-16T04:54:44;13.10;99.90
66328;DHT22;53133;52.862;6.602;2022-10-16T04:57:10;13.10;99.90
66328;DHT22;53133;52.862;6.602;2022-10-16T04:59:36;13.20;99.90
66328;DHT22;53133;52.862;6.602;2022-10-16T05:02:02;13.20;99.90
66328;DHT22;53133;52.862;6.602;2022-10-16T05:04:28;13.20;99.90
66328;DHT22;53133;52.862;6.602;2022-10-16T05:06:53;13.20;99.90
66328;DHT22;53133;52.862;6.602;2022-10-16T05:09:19;13.20;99.90
66328;DHT22;53133;52.862;6.602;2022-10-16T05:11:45;13.20;99.90
66328;DHT22;53133;52.862;6.602;2022-10-16T05:14:10;13.20;99.90
66328;DHT22;53133;52.862;6.602;2022-10-16T05:16:36;13.20;99.90
66328;DHT22;53133;52.862;6.602;2022-10-16T05:19:01;13.20;99.90
66328;DHT22;53133;52.862;6.602;2022-10-16T05:21:27;13.20;99.90
66328;DHT22;53133;52.862;6.602;2022-10-16T05:23:53;13.20;99.90
66328;DHT22;53133;52.862;6.602;2022-10-16T05:26:19;13.20;99.90
66328;DHT22;53133;52.862;6.602;2022-10-16T05:28:45;13.20;99.90
66328;DHT22;53133;52.862;6.602;2022-10-16T05:31:11;13.20;99.90
66328;DHT22;53133;52.862;6.602;2022-10-16T05:33:36;13.10;99.90
66328;DHT22;53133;52.862;6.602;2022-10-16T05:36:08;13.20;99.90
66328;DHT22;53133;52.862;6.602;2022-10-16T05:38:35;13.20;99.90
66328;DHT22;53133;52.862;6.602;2022-10-16T05:41:00;13.20;99.90
66328;DHT22;53133;52.862;6.602;2022-10-16T05:43:28;13.20;99.90
66328;DHT22;53133;52.862;6.602;2022-10-16T05:46:05;13.20;99.90
66328;DHT22;53133;52.862;6.602;2022-10-16T05:48:31;13.20;99.90
66328;DHT22;53133;52.862;6.602;2022-10-16T05:51:03;13.20;99.90
66328;DHT22;53133;52.862;6.602;2022-10-16T05:53:31;13.20;99.90
66328;DHT22;53133;52.862;6.602;2022-10-16T05:55:58;13.20;99.90
66328;DHT22;53133;52.862;6.602;2022-10-16T05:58:24;13.20;99.90
66328;DHT22;53133;52.862;6.602;2022-10-16T06:00:55;13.20;99.90
66328;DHT22;53133;52.862;6.602;2022-10-16T06:03:21;13.20;99.90
66328;DHT22;53133;52.862;6.602;2022-10-16T06:05:46;13.20;99.90
66328;DHT22;53133;52.862;6.602;2022-10-16T06:08:12;13.20;99.90
66328;DHT22;53133;52.862;6.602;2022-10-16T06:10:38;13.20;99.90
66328;DHT22;53133;52.862;6.602;2022-10-16T06:13:03;13.20;99.90
66328;DHT22;53133;52.862;6.602;2022-10-16T06:15:29;13.20;99.90
66328;DHT22;53133;52.862;6.602;2022-10-16T06:17:55;13.20;99.90
66328;DHT22;53133;52.862;6.602;2022-10-16T06:20:20;13.20;99.90
66328;DHT22;53133;52.862;6.602;2022-10-16T06:22:46;13.20;99.90
66328;DHT22;53133;52.862;6.602;2022-10-16T06:25:12;13.20;99.90
66328;DHT22;53133;52.862;6.602;2022-10-16T06:27:40;13.20;99.90
66328;DHT22;53133;52.862;6.602;2022-10-16T06:30:06;13.20;99.90
66328;DHT22;53133;52.862;6.602;2022-10-16T06:32:32;13.20;99.90
66328;DHT22;53133;52.862;6.602;2022-10-16T06:34:58;13.20;99.90
66328;DHT22;53133;52.862;6.602;2022-10-16T06:37:24;13.20;99.90
66328;DHT22;53133;52.862;6.602;2022-10-16T06:39:50;13.20;99.90
66328;DHT22;53133;52.862;6.602;2022-10-16T06:42:18;13.30;99.90
66328;DHT22;53133;52.862;6.602;2022-10-16T06:44:43;13.30;99.90
66328;DHT22;53133;52.862;6.602;2022-10-16T06:47:09;13.30;99.90
66328;DHT22;53133;52.862;6.602;2022-10-16T06:49:34;13.30;99.90
66328;DHT22;53133;52.862;6.602;2022-10-16T06:52:00;13.30;99.90
66328;DHT22;53133;52.862;6.602;2022-10-16T06:54:27;13.30;99.90
66328;DHT22;53133;52.862;6.602;2022-10-16T06:56:53;13.40;99.90
66328;DHT22;53133;52.862;6.602;2022-10-16T06:59:20;13.40;99.90
66328;DHT22;53133;52.862;6.602;2022-10-16T07:01:46;13.40;99.90
66328;DHT22;53133;52.862;6.602;2022-10-16T07:04:11;13.40;99.90
66328;DHT22;53133;52.862;6.602;2022-10-16T07:06:37;13.40;99.90
66328;DHT22;53133;52.862;6.602;2022-10-16T07:09:05;13.40;99.90
66328;DHT22;53133;52.862;6.602;2022-10-16T07:11:31;13.40;99.90
66328;DHT22;53133;52.862;6.602;2022-10-16T07:13:56;13.40;99.90
66328;DHT22;53133;52.862;6.602;2022-10-16T07:16:27;13.40;99.90
66328;DHT22;53133;52.862;6.602;2022-10-16T07:18:58;13.50;99.90
66328;DHT22;53133;52.862;6.602;2022-10-16T07:21:25;13.50;99.90
66328;DHT22;53133;52.862;6.602;2022-10-16T07:23:53;13.50;99.90
66328;DHT22;53133;52.862;6.602;2022-10-16T07:26:19;13.50;99.90
66328;DHT22;53133;52.862;6.602;2022-10-16T07:28:45;13.60;99.90
66328;DHT22;53133;52.862;6.602;2022-10-16T07:31:15;13.60;99.90
66328;DHT22;53133;52.862;6.602;2022-10-16T07:33:42;13.60;99.90
66328;DHT22;53133;52.862;6.602;2022-10-16T07:36:10;13.60;99.90
66328;DHT22;53133;52.862;6.602;2022-10-16T07:38:35;13.70;99.90
66328;DHT22;53133;52.862;6.602;2022-10-16T07:41:06;13.70;99.90
66328;DHT22;53133;52.862;6.602;2022-10-16T07:43:33;13.70;99.90
66328;DHT22;53133;52.862;6.602;2022-10-16T07:45:59;13.70;99.90
66328;DHT22;53133;52.862;6.602;2022-10-16T07:48:27;13.70;99.90
66328;DHT22;53133;52.862;6.602;2022-10-16T07:51:03;13.70;99.90
66328;DHT22;53133;52.862;6.602;2022-10-16T07:53:29;13.70;99.90
66328;DHT22;53133;52.862;6.602;2022-10-16T07:55:58;13.80;99.90
66328;DHT22;53133;52.862;6.602;2022-10-16T07:58:25;13.80;99.90
66328;DHT22;53133;52.862;6.602;2022-10-16T08:00:50;13.80;99.90
66328;DHT22;53133;52.862;6.602;2022-10-16T08:03:16;13.80;99.90
66328;DHT22;53133;52.862;6.602;2022-10-16T08:05:41;13.90;99.90
66328;DHT22;53133;52.862;6.602;2022-10-16T08:08:13;13.90;99.90
66328;DHT22;53133;52.862;6.602;2022-10-16T08:10:39;13.90;99.90
66328;DHT22;53133;52.862;6.602;2022-10-16T08:13:04;13.90;99.90
66328;DHT22;53133;52.862;6.602;2022-10-16T08:15:30;14.00;99.90
66328;DHT22;53133;52.862;6.602;2022-10-16T08:18:04;13.90;99.90
66328;DHT22;53133;52.862;6.602;2022-10-16T08:20:30;14.00;99.90
66328;DHT22;53133;52.862;6.602;2022-10-16T08:22:56;14.00;99.90
66328;DHT22;53133;52.862;6.602;2022-10-16T08:25:23;14.00;99.90
66328;DHT22;53133;52.862;6.602;2022-10-16T08:27:49;14.10;99.90
66328;DHT22;53133;52.862;6.602;2022-10-16T08:30:16;14.10;99.90
66328;DHT22;53133;52.862;6.602;2022-10-16T08:32:41;14.10;99.90
66328;DHT22;53133;52.862;6.602;2022-10-16T08:35:09;14.00;99.90
66328;DHT22;53133;52.862;6.602;2022-10-16T08:37:35;14.10;99.90
66328;DHT22;53133;52.862;6.602;2022-10-16T08:40:01;14.00;99.90
66328;DHT22;53133;52.862;6.602;2022-10-16T08:42:50;14.10;99.90
66328;DHT22;53133;52.862;6.602;2022-10-16T08:48:29;14.10;99.90
66328;DHT22;53133;52.862;6.602;2022-10-16T08:50:55;14.20;99.90
66328;DHT22;53133;52.862;6.602;2022-10-16T08:53:28;14.20;99.90
66328;DHT22;53133;52.862;6.602;2022-10-16T08:55:55;14.20;99.90
66328;DHT22;53133;52.862;6.602;2022-10-16T08:58:25;14.20;99.90
66328;DHT22;53133;52.862;6.602;2022-10-16T09:00:57;14.20;99.90
66328;DHT22;53133;52.862;6.602;2022-10-16T09:08:53;14.30;99.90
66328;DHT22;53133;52.862;6.602;2022-10-16T09:22:37;14.40;99.90
66328;DHT22;53133;52.862;6.602;2022-10-16T09:25:15;14.40;99.90
66328;DHT22;53133;52.862;6.602;2022-10-16T09:27:42;14.40;99.90
66328;DHT22;53133;52.862;6.602;2022-10-16T09:30:17;14.40;99.90
66328;DHT22;53133;52.862;6.602;2022-10-16T09:32:46;14.50;99.90
66328;DHT22;53133;52.862;6.602;2022-10-16T09:35:18;14.50;99.90
66328;DHT22;53133;52.862;6.602;2022-10-16T09:37:47;14.50;99.90
66328;DHT22;53133;52.862;6.602;2022-10-16T09:40:37;14.50;99.90
66328;DHT22;53133;52.862;6.602;2022-10-16T09:46:06;14.60;99.90
66328;DHT22;53133;52.862;6.602;2022-10-16T09:48:44;14.60;99.90
66328;DHT22;53133;52.862;6.602;2022-10-16T09:51:36;14.60;99.90
66328;DHT22;53133;52.862;6.602;2022-10-16T09:54:17;14.70;99.90
66328;DHT22;53133;52.862;6.602;2022-10-16T09:56:43;14.70;99.90
66328;DHT22;53133;52.862;6.602;2022-10-16T09:59:16;14.80;99.90
66328;DHT22;53133;52.862;6.602;2022-10-16T10:01:49;14.80;99.90
66328;DHT22;53133;52.862;6.602;2022-10-16T10:04:17;14.80;99.90
66328;DHT22;53133;52.862;6.602;2022-10-16T10:06:47;14.80;99.90
66328;DHT22;53133;52.862;6.602;2022-10-16T10:14:22;14.90;99.90
66328;DHT22;53133;52.862;6.602;2022-10-16T10:16:49;15.00;99.90
66328;DHT22;53133;52.862;6.602;2022-10-16T10:19:22;15.00;99.90
66328;DHT22;53133;52.862;6.602;2022-10-16T10:21:50;15.10;99.90
66328;DHT22;53133;52.862;6.602;2022-10-16T10:24:18;15.10;99.90
66328;DHT22;53133;52.862;6.602;2022-10-16T10:26:57;15.00;99.90
66328;DHT22;53133;52.862;6.602;2022-10-16T10:29:59;15.10;99.90
66328;DHT22;53133;52.862;6.602;2022-10-16T10:32:51;15.20;99.90
66328;DHT22;53133;52.862;6.602;2022-10-16T10:35:32;15.20;99.90
66328;DHT22;53133;52.862;6.602;2022-10-16T10:40:51;15.30;99.90
66328;DHT22;53133;52.862;6.602;2022-10-16T10:43:38;15.30;99.90
66328;DHT22;53133;52.862;6.602;2022-10-16T10:46:14;15.30;99.90
66328;DHT22;53133;52.862;6.602;2022-10-16T10:49:16;15.30;99.90
66328;DHT22;53133;52.862;6.602;2022-10-16T10:52:13;15.30;99.90
66328;DHT22;53133;52.862;6.602;2022-10-16T10:57:09;15.40;99.90
66328;DHT22;53133;52.862;6.602;2022-10-16T11:06:59;15.40;99.90
66328;DHT22;53133;52.862;6.602;2022-10-16T11:09:32;15.50;99.90
66328;DHT22;53133;52.862;6.602;2022-10-16T11:12:00;15.50;99.90
66328;DHT22;53133;52.862;6.602;2022-10-16T11:14:35;15.50;99.90
66328;DHT22;53133;52.862;6.602;2022-10-16T11:17:31;15.50;99.90
66328;DHT22;53133;52.862;6.602;2022-10-16T11:19:58;15.60;99.90
66328;DHT22;53133;52.862;6.602;2022-10-16T11:22:54;15.60;99.90
66328;DHT22;53133;52.862;6.602;2022-10-16T11:25:27;15.50;99.90
66328;DHT22;53133;52.862;6.602;2022-10-16T11:28:27;15.50;99.90
66328;DHT22;53133;52.862;6.602;2022-10-16T11:31:38;15.50;99.90
66328;DHT22;53133;52.862;6.602;2022-10-16T11:34:17;15.50;99.90
66328;DHT22;53133;52.862;6.602;2022-10-16T11:37:01;15.60;99.90
66328;DHT22;53133;52.862;6.602;2022-10-16T11:39:30;15.60;99.90
66328;DHT22;53133;52.862;6.602;2022-10-16T11:42:19;15.70;99.90
66328;DHT22;53133;52.862;6.602;2022-10-16T11:47:45;15.70;99.90
66328;DHT22;53133;52.862;6.602;2022-10-16T11:55:29;15.80;99.90
66328;DHT22;53133;52.862;6.602;2022-10-16T11:58:25;15.90;99.90
66328;DHT22;53133;52.862;6.602;2022-10-16T12:06:34;15.90;99.90
66328;DHT22;53133;52.862;6.602;2022-10-16T12:09:01;16.10;99.80
66328;DHT22;53133;52.862;6.602;2022-10-16T12:11:37;16.20;99.70
66328;DHT22;53133;52.862;6.602;2022-10-16T12:16:50;16.40;99.30
66328;DHT22;53133;52.862;6.602;2022-10-16T12:19:17;16.40;99.50
66328;DHT22;53133;52.862;6.602;2022-10-16T12:21:44;16.50;98.60
66328;DHT22;53133;52.862;6.602;2022-10-16T12:26:48;16.60;97.60
66328;DHT22;53133;52.862;6.602;2022-10-16T12:29:41;16.60;97.80
66328;DHT22;53133;52.862;6.602;2022-10-16T12:32:30;16.70;97.00
66328;DHT22;53133;52.862;6.602;2022-10-16T12:34:56;16.80;96.60
66328;DHT22;53133;52.862;6.602;2022-10-16T12:37:31;16.80;96.70
66328;DHT22;53133;52.862;6.602;2022-10-16T12:39:57;16.80;96.70
66328;DHT22;53133;52.862;6.602;2022-10-16T12:44:53;16.90;96.10
66328;DHT22;53133;52.862;6.602;2022-10-16T12:49:56;17.00;95.40
66328;DHT22;53133;52.862;6.602;2022-10-16T12:54:56;17.00;95.40
66328;DHT22;53133;52.862;6.602;2022-10-16T13:05:38;17.20;95.30
66328;DHT22;53133;52.862;6.602;2022-10-16T13:11:03;17.20;94.10
66328;DHT22;53133;52.862;6.602;2022-10-16T13:13:50;17.10;94.30
66328;DHT22;53133;52.862;6.602;2022-10-16T13:19:11;16.90;94.90
66328;DHT22;53133;52.862;6.602;2022-10-16T13:24:42;16.60;94.80
66328;DHT22;53133;52.862;6.602;2022-10-16T13:27:40;16.60;95.00
66328;DHT22;53133;52.862;6.602;2022-10-16T13:30:23;16.50;95.00
66328;DHT22;53133;52.862;6.602;2022-10-16T13:35:27;16.40;95.70
66328;DHT22;53133;52.862;6.602;2022-10-16T13:40:29;16.50;96.50
66328;DHT22;53133;52.862;6.602;2022-10-16T13:42:54;16.50;96.50
66328;DHT22;53133;52.862;6.602;2022-10-16T13:45:23;16.60;96.60
66328;DHT22;53133;52.862;6.602;2022-10-16T13:47:49;16.70;96.70
66328;DHT22;53133;52.862;6.602;2022-10-16T13:50:17;16.80;96.60
66328;DHT22;53133;52.862;6.602;2022-10-16T13:52:42;16.80;97.00
66328;DHT22;53133;52.862;6.602;2022-10-16T13:55:16;16.90;97.10
66328;DHT22;53133;52.862;6.602;2022-10-16T13:57:42;16.90;97.30
66328;DHT22;53133;52.862;6.602;2022-10-16T14:00:22;16.90;97.20
66328;DHT22;53133;52.862;6.602;2022-10-16T14:02:59;16.90;97.00
66328;DHT22;53133;52.862;6.602;2022-10-16T14:05:26;16.90;97.00
66328;DHT22;53133;52.862;6.602;2022-10-16T14:07:53;16.90;97.40
66328;DHT22;53133;52.862;6.602;2022-10-16T14:10:32;17.00;97.70
66328;DHT22;53133;52.862;6.602;2022-10-16T14:13:08;17.00;97.90
66328;DHT22;53133;52.862;6.602;2022-10-16T14:15:49;17.00;98.00
66328;DHT22;53133;52.862;6.602;2022-10-16T14:18:20;17.00;97.80
66328;DHT22;53133;52.862;6.602;2022-10-16T14:20:46;17.00;97.50
66328;DHT22;53133;52.862;6.602;2022-10-16T14:23:30;17.00;97.40
66328;DHT22;53133;52.862;6.602;2022-10-16T14:26:12;17.00;97.40
66328;DHT22;53133;52.862;6.602;2022-10-16T14:28:39;16.90;97.60
66328;DHT22;53133;52.862;6.602;2022-10-16T14:31:30;16.90;97.90
66328;DHT22;53133;52.862;6.602;2022-10-16T14:33:57;16.90;98.30
66328;DHT22;53133;52.862;6.602;2022-10-16T14:36:24;16.80;98.40
66328;DHT22;53133;52.862;6.602;2022-10-16T14:39:04;16.80;98.20
66328;DHT22;53133;52.862;6.602;2022-10-16T14:41:42;16.80;97.70
66328;DHT22;53133;52.862;6.602;2022-10-16T14:44:12;16.80;98.00
66328;DHT22;53133;52.862;6.602;2022-10-16T14:46:40;16.70;98.00
66328;DHT22;53133;52.862;6.602;2022-10-16T14:51:35;16.70;97.90
66328;DHT22;53133;52.862;6.602;2022-10-16T14:54:02;16.60;98.00
66328;DHT22;53133;52.862;6.602;2022-10-16T14:56:52;16.60;98.20
66328;DHT22;53133;52.862;6.602;2022-10-16T14:59:35;16.50;98.50
66328;DHT22;53133;52.862;6.602;2022-10-16T15:04:46;16.50;98.90
66328;DHT22;53133;52.862;6.602;2022-10-16T15:07:12;16.40;99.10
66328;DHT22;53133;52.862;6.602;2022-10-16T15:09:37;16.40;99.30
66328;DHT22;53133;52.862;6.602;2022-10-16T15:12:03;16.40;99.50
66328;DHT22;53133;52.862;6.602;2022-10-16T15:14:29;16.40;99.60
66328;DHT22;53133;52.862;6.602;2022-10-16T15:16:54;16.30;99.80
66328;DHT22;53133;52.862;6.602;2022-10-16T15:19:20;16.30;99.70
66328;DHT22;53133;52.862;6.602;2022-10-16T15:21:45;16.30;99.60
66328;DHT22;53133;52.862;6.602;2022-10-16T15:24:12;16.30;99.50
66328;DHT22;53133;52.862;6.602;2022-10-16T15:26:38;16.20;99.90
66328;DHT22;53133;52.862;6.602;2022-10-16T15:29:04;16.20;99.90
66328;DHT22;53133;52.862;6.602;2022-10-16T15:31:30;16.20;99.90
66328;DHT22;53133;52.862;6.602;2022-10-16T15:33:56;16.20;99.90
66328;DHT22;53133;52.862;6.602;2022-10-16T15:36:34;16.20;99.90
66328;DHT22;53133;52.862;6.602;2022-10-16T15:39:02;16.10;99.90
66328;DHT22;53133;52.862;6.602;2022-10-16T15:41:28;16.10;99.90
66328;DHT22;53133;52.862;6.602;2022-10-16T15:43:53;16.00;99.90
66328;DHT22;53133;52.862;6.602;2022-10-16T15:46:20;16.00;99.90
66328;DHT22;53133;52.862;6.602;2022-10-16T15:48:50;16.00;99.90
66328;DHT22;53133;52.862;6.602;2022-10-16T15:51:18;15.90;99.90
66328;DHT22;53133;52.862;6.602;2022-10-16T15:53:43;15.90;99.90
66328;DHT22;53133;52.862;6.602;2022-10-16T15:56:12;15.90;99.90
66328;DHT22;53133;52.862;6.602;2022-10-16T15:58:38;15.90;99.90
66328;DHT22;53133;52.862;6.602;2022-10-16T16:01:04;15.80;99.90
66328;DHT22;53133;52.862;6.602;2022-10-16T16:03:30;15.70;99.90
66328;DHT22;53133;52.862;6.602;2022-10-16T16:05:56;15.70;99.90
66328;DHT22;53133;52.862;6.602;2022-10-16T16:08:22;15.60;99.90
66328;DHT22;53133;52.862;6.602;2022-10-16T16:11:03;15.50;99.90
66328;DHT22;53133;52.862;6.602;2022-10-16T16:13:29;15.50;99.90
66328;DHT22;53133;52.862;6.602;2022-10-16T16:15:54;15.40;99.90
66328;DHT22;53133;52.862;6.602;2022-10-16T16:18:20;15.30;99.90
66328;DHT22;53133;52.862;6.602;2022-10-16T16:20:46;15.30;99.90
66328;DHT22;53133;52.862;6.602;2022-10-16T16:23:11;15.20;99.90
66328;DHT22;53133;52.862;6.602;2022-10-16T16:25:37;15.10;99.90
66328;DHT22;53133;52.862;6.602;2022-10-16T16:28:02;15.00;99.90
66328;DHT22;53133;52.862;6.602;2022-10-16T16:30:28;15.00;99.90
66328;DHT22;53133;52.862;6.602;2022-10-16T16:32:54;14.90;99.90
66328;DHT22;53133;52.862;6.602;2022-10-16T16:35:19;14.90;99.90
66328;DHT22;53133;52.862;6.602;2022-10-16T16:37:47;14.80;99.90
66328;DHT22;53133;52.862;6.602;2022-10-16T16:40:12;14.70;99.90
66328;DHT22;53133;52.862;6.602;2022-10-16T16:42:38;14.70;99.90
66328;DHT22;53133;52.862;6.602;2022-10-16T16:45:04;14.60;99.90
66328;DHT22;53133;52.862;6.602;2022-10-16T16:47:30;14.60;99.90
66328;DHT22;53133;52.862;6.602;2022-10-16T16:49:55;14.50;99.90
66328;DHT22;53133;52.862;6.602;2022-10-16T16:52:21;14.50;99.90
66328;DHT22;53133;52.862;6.602;2022-10-16T16:54:47;14.40;99.90
66328;DHT22;53133;52.862;6.602;2022-10-16T16:57:18;14.40;99.90
66328;DHT22;53133;52.862;6.602;2022-10-16T16:59:43;14.30;99.90
66328;DHT22;53133;52.862;6.602;2022-10-16T17:02:09;14.30;99.90
66328;DHT22;53133;52.862;6.602;2022-10-16T17:04:34;14.20;99.90
66328;DHT22;53133;52.862;6.602;2022-10-16T17:07:00;14.20;99.90
66328;DHT22;53133;52.862;6.602;2022-10-16T17:09:26;14.20;99.90
66328;DHT22;53133;52.862;6.602;2022-10-16T17:11:51;14.10;99.90
66328;DHT22;53133;52.862;6.602;2022-10-16T17:14:17;14.10;99.90
66328;DHT22;53133;52.862;6.602;2022-10-16T17:16:42;14.00;99.90
66328;DHT22;53133;52.862;6.602;2022-10-16T17:19:15;14.00;99.90
66328;DHT22;53133;52.862;6.602;2022-10-16T17:21:42;13.90;99.90
66328;DHT22;53133;52.862;6.602;2022-10-16T17:24:08;13.80;99.90
66328;DHT22;53133;52.862;6.602;2022-10-16T17:26:34;13.80;99.90
66328;DHT22;53133;52.862;6.602;2022-10-16T17:29:04;13.80;99.90
66328;DHT22;53133;52.862;6.602;2022-10-16T17:31:32;13.70;99.90
66328;DHT22;53133;52.862;6.602;2022-10-16T17:33:59;13.70;99.90